Oak Point, Texas
Current Conditions -  °F | °C
As of 7:53 AM on Thursday 29 Jan 2015 (Local Time) from KDTO Reporting Station
Clear Clear  
Wind Chill: 45°   Ceiling: Unl
Heat Index: 48°   Visibility: 10mi
Dew Point: 38°   Wind: 6mph
Humidity: 68%   Direction: 340°NNW
Pressure: 30.21"   Gusts: NA
Location:  33.1913°N, 96.9829°W
Report Text: KDTO 291353Z 34005KT 10SM CLR 09/03 A3021 RMK AO2 SLP227 T00890033
Loading
Personal Weather Stations






























Interactive Weather Map New forecast layout! Learn more

10-Day Weather Forecast

Advertisements
Track Severe Weather on mobile